sensor_id;sensor_type;location;lat;lon;timestamp;P1;durP1;ratioP1;P2;durP2;ratioP2
63492;SDS011;49638;47.526;10.028;2023-02-23T00:00:19;41.78;;;21.70;;
63492;SDS011;49638;47.526;10.028;2023-02-23T00:03:20;43.45;;;21.50;;
63492;SDS011;49638;47.526;10.028;2023-02-23T00:06:21;41.75;;;21.88;;
63492;SDS011;49638;47.526;10.028;2023-02-23T00:09:22;44.55;;;21.92;;
63492;SDS011;49638;47.526;10.028;2023-02-23T00:12:23;45.45;;;22.48;;
63492;SDS011;49638;47.526;10.028;2023-02-23T00:15:26;44.13;;;21.40;;
63492;SDS011;49638;47.526;10.028;2023-02-23T00:18:28;44.35;;;22.38;;
63492;SDS011;49638;47.526;10.028;2023-02-23T00:21:30;44.15;;;22.27;;
63492;SDS011;49638;47.526;10.028;2023-02-23T00:24:34;45.83;;;22.35;;
63492;SDS011;49638;47.526;10.028;2023-02-23T00:27:37;47.00;;;23.40;;
63492;SDS011;49638;47.526;10.028;2023-02-23T00:30:43;44.50;;;22.67;;
63492;SDS011;49638;47.526;10.028;2023-02-23T00:33:45;46.95;;;21.92;;
63492;SDS011;49638;47.526;10.028;2023-02-23T00:36:47;46.13;;;22.23;;
63492;SDS011;49638;47.526;10.028;2023-02-23T00:39:50;47.97;;;23.23;;
63492;SDS011;49638;47.526;10.028;2023-02-23T00:42:51;45.38;;;23.33;;
63492;SDS011;49638;47.526;10.028;2023-02-23T00:45:53;48.95;;;23.55;;
63492;SDS011;49638;47.526;10.028;2023-02-23T00:48:55;42.90;;;22.08;;
63492;SDS011;49638;47.526;10.028;2023-02-23T00:51:57;42.50;;;20.73;;
63492;SDS011;49638;47.526;10.028;2023-02-23T00:54:57;41.38;;;20.98;;
63492;SDS011;49638;47.526;10.028;2023-02-23T00:57:57;41.03;;;20.27;;
63492;SDS011;49638;47.526;10.028;2023-02-23T01:00:58;41.83;;;21.33;;
63492;SDS011;49638;47.526;10.028;2023-02-23T01:03:58;42.33;;;21.83;;
63492;SDS011;49638;47.526;10.028;2023-02-23T01:07:00;46.45;;;21.25;;
63492;SDS011;49638;47.526;10.028;2023-02-23T01:10:05;44.20;;;21.52;;
63492;SDS011;49638;47.526;10.028;2023-02-23T01:13:23;39.22;;;18.52;;
63492;SDS011;49638;47.526;10.028;2023-02-23T01:16:25;38.15;;;18.85;;
63492;SDS011;49638;47.526;10.028;2023-02-23T01:19:28;37.20;;;17.58;;
63492;SDS011;49638;47.526;10.028;2023-02-23T01:22:28;31.10;;;16.77;;
63492;SDS011;49638;47.526;10.028;2023-02-23T01:25:31;29.80;;;16.40;;
63492;SDS011;49638;47.526;10.028;2023-02-23T01:28:32;32.05;;;15.88;;
63492;SDS011;49638;47.526;10.028;2023-02-23T01:31:33;29.65;;;16.52;;
63492;SDS011;49638;47.526;10.028;2023-02-23T01:34:34;28.23;;;15.13;;
63492;SDS011;49638;47.526;10.028;2023-02-23T01:37:35;26.45;;;14.05;;
63492;SDS011;49638;47.526;10.028;2023-02-23T01:40:41;29.75;;;14.70;;
63492;SDS011;49638;47.526;10.028;2023-02-23T01:43:58;28.80;;;13.77;;
63492;SDS011;49638;47.526;10.028;2023-02-23T01:47:02;26.27;;;12.82;;
63492;SDS011;49638;47.526;10.028;2023-02-23T01:50:03;24.77;;;13.23;;
63492;SDS011;49638;47.526;10.028;2023-02-23T01:53:04;27.67;;;12.02;;
63492;SDS011;49638;47.526;10.028;2023-02-23T01:56:06;27.52;;;12.40;;
63492;SDS011;49638;47.526;10.028;2023-02-23T01:59:11;23.50;;;12.05;;
63492;SDS011;49638;47.526;10.028;2023-02-23T02:02:17;26.58;;;12.27;;
63492;SDS011;49638;47.526;10.028;2023-02-23T02:05:20;20.67;;;11.13;;
63492;SDS011;49638;47.526;10.028;2023-02-23T02:08:20;21.85;;;11.68;;
63492;SDS011;49638;47.526;10.028;2023-02-23T02:11:23;22.05;;;10.80;;
63492;SDS011;49638;47.526;10.028;2023-02-23T02:14:29;21.58;;;11.05;;
63492;SDS011;49638;47.526;10.028;2023-02-23T02:37:49;21.00;;;10.05;;
63492;SDS011;49638;47.526;10.028;2023-02-23T02:41:07;21.67;;;10.63;;
63492;SDS011;49638;47.526;10.028;2023-02-23T02:44:29;22.35;;;10.75;;
63492;SDS011;49638;47.526;10.028;2023-02-23T02:54:29;16.27;;;9.80;;
63492;SDS011;49638;47.526;10.028;2023-02-23T02:57:34;23.10;;;11.25;;
63492;SDS011;49638;47.526;10.028;2023-02-23T03:00:36;18.75;;;10.65;;
63492;SDS011;49638;47.526;10.028;2023-02-23T03:03:58;22.35;;;11.43;;
63492;SDS011;49638;47.526;10.028;2023-02-23T03:07:22;19.92;;;10.25;;
63492;SDS011;49638;47.526;10.028;2023-02-23T03:17:58;24.33;;;10.73;;
63492;SDS011;49638;47.526;10.028;2023-02-23T03:21:40;19.02;;;10.00;;
63492;SDS011;49638;47.526;10.028;2023-02-23T03:28:47;19.95;;;10.40;;
63492;SDS011;49638;47.526;10.028;2023-02-23T03:35:52;20.98;;;10.23;;
63492;SDS011;49638;47.526;10.028;2023-02-23T03:39:21;22.42;;;10.05;;
63492;SDS011;49638;47.526;10.028;2023-02-23T03:42:45;20.80;;;9.68;;
63492;SDS011;49638;47.526;10.028;2023-02-23T03:46:08;19.63;;;9.45;;
63492;SDS011;49638;47.526;10.028;2023-02-23T03:49:32;18.45;;;8.93;;
63492;SDS011;49638;47.526;10.028;2023-02-23T03:52:55;17.83;;;7.70;;
63492;SDS011;49638;47.526;10.028;2023-02-23T03:56:17;22.27;;;11.15;;
63492;SDS011;49638;47.526;10.028;2023-02-23T03:59:42;22.08;;;11.32;;
63492;SDS011;49638;47.526;10.028;2023-02-23T04:03:07;22.42;;;11.25;;
63492;SDS011;49638;47.526;10.028;2023-02-23T04:06:31;25.60;;;11.57;;
63492;SDS011;49638;47.526;10.028;2023-02-23T04:09:55;24.35;;;11.95;;
63492;SDS011;49638;47.526;10.028;2023-02-23T04:13:16;23.55;;;11.20;;
63492;SDS011;49638;47.526;10.028;2023-02-23T04:16:19;19.52;;;9.70;;
63492;SDS011;49638;47.526;10.028;2023-02-23T04:19:20;19.15;;;9.70;;
63492;SDS011;49638;47.526;10.028;2023-02-23T04:22:20;20.33;;;9.43;;
63492;SDS011;49638;47.526;10.028;2023-02-23T04:25:21;19.45;;;9.82;;
63492;SDS011;49638;47.526;10.028;2023-02-23T04:28:22;16.38;;;8.32;;
63492;SDS011;49638;47.526;10.028;2023-02-23T04:31:24;18.35;;;9.23;;
63492;SDS011;49638;47.526;10.028;2023-02-23T04:34:24;18.52;;;8.98;;
63492;SDS011;49638;47.526;10.028;2023-02-23T04:37:24;14.43;;;7.75;;
63492;SDS011;49638;47.526;10.028;2023-02-23T04:40:25;12.60;;;7.03;;
63492;SDS011;49638;47.526;10.028;2023-02-23T04:43:25;12.27;;;6.70;;
63492;SDS011;49638;47.526;10.028;2023-02-23T04:46:26;9.00;;;5.82;;
63492;SDS011;49638;47.526;10.028;2023-02-23T04:49:26;10.85;;;6.30;;
63492;SDS011;49638;47.526;10.028;2023-02-23T04:52:26;10.85;;;5.28;;
63492;SDS011;49638;47.526;10.028;2023-02-23T04:55:27;8.65;;;4.68;;
63492;SDS011;49638;47.526;10.028;2023-02-23T04:58:27;6.82;;;4.55;;
63492;SDS011;49638;47.526;10.028;2023-02-23T05:01:27;7.95;;;4.35;;
63492;SDS011;49638;47.526;10.028;2023-02-23T05:04:28;10.35;;;5.60;;
63492;SDS011;49638;47.526;10.028;2023-02-23T05:07:29;10.80;;;5.45;;
63492;SDS011;49638;47.526;10.028;2023-02-23T05:10:29;8.25;;;4.55;;
63492;SDS011;49638;47.526;10.028;2023-02-23T05:13:29;9.07;;;5.10;;
63492;SDS011;49638;47.526;10.028;2023-02-23T05:16:29;11.63;;;4.68;;
63492;SDS011;49638;47.526;10.028;2023-02-23T05:19:30;7.80;;;4.90;;
63492;SDS011;49638;47.526;10.028;2023-02-23T05:22:30;9.07;;;5.03;;
63492;SDS011;49638;47.526;10.028;2023-02-23T05:25:30;12.60;;;6.15;;
63492;SDS011;49638;47.526;10.028;2023-02-23T05:28:31;10.88;;;6.20;;
63492;SDS011;49638;47.526;10.028;2023-02-23T05:31:32;11.85;;;6.32;;
63492;SDS011;49638;47.526;10.028;2023-02-23T05:34:32;13.27;;;6.45;;
63492;SDS011;49638;47.526;10.028;2023-02-23T05:37:33;9.75;;;5.70;;
63492;SDS011;49638;47.526;10.028;2023-02-23T05:40:33;10.90;;;5.70;;
63492;SDS011;49638;47.526;10.028;2023-02-23T05:43:35;11.60;;;5.70;;
63492;SDS011;49638;47.526;10.028;2023-02-23T05:46:35;11.43;;;6.10;;
63492;SDS011;49638;47.526;10.028;2023-02-23T05:49:36;12.73;;;6.65;;
63492;SDS011;49638;47.526;10.028;2023-02-23T05:52:37;13.75;;;6.45;;
63492;SDS011;49638;47.526;10.028;2023-02-23T05:55:40;13.13;;;6.13;;
63492;SDS011;49638;47.526;10.028;2023-02-23T05:58:40;12.93;;;6.30;;
63492;SDS011;49638;47.526;10.028;2023-02-23T06:01:40;12.32;;;6.60;;
63492;SDS011;49638;47.526;10.028;2023-02-23T06:04:41;16.23;;;6.90;;
63492;SDS011;49638;47.526;10.028;2023-02-23T06:07:41;11.82;;;5.68;;
63492;SDS011;49638;47.526;10.028;2023-02-23T06:10:41;24.00;;;7.68;;
63492;SDS011;49638;47.526;10.028;2023-02-23T06:13:42;40.63;;;10.48;;
63492;SDS011;49638;47.526;10.028;2023-02-23T06:16:42;16.45;;;7.03;;
63492;SDS011;49638;47.526;10.028;2023-02-23T06:19:44;11.18;;;5.80;;
63492;SDS011;49638;47.526;10.028;2023-02-23T06:22:44;11.57;;;5.95;;
63492;SDS011;49638;47.526;10.028;2023-02-23T06:25:45;9.85;;;5.70;;
63492;SDS011;49638;47.526;10.028;2023-02-23T06:28:46;10.80;;;5.97;;
63492;SDS011;49638;47.526;10.028;2023-02-23T06:31:46;13.02;;;5.05;;
63492;SDS011;49638;47.526;10.028;2023-02-23T06:34:47;11.10;;;4.28;;
63492;SDS011;49638;47.526;10.028;2023-02-23T06:37:47;9.25;;;3.88;;
63492;SDS011;49638;47.526;10.028;2023-02-23T06:40:47;9.23;;;3.70;;
63492;SDS011;49638;47.526;10.028;2023-02-23T06:43:47;8.68;;;3.58;;
63492;SDS011;49638;47.526;10.028;2023-02-23T06:46:48;9.38;;;2.90;;
63492;SDS011;49638;47.526;10.028;2023-02-23T06:49:48;9.48;;;2.35;;
63492;SDS011;49638;47.526;10.028;2023-02-23T06:52:48;6.90;;;2.42;;
63492;SDS011;49638;47.526;10.028;2023-02-23T06:55:49;4.70;;;1.95;;
63492;SDS011;49638;47.526;10.028;2023-02-23T06:58:49;6.47;;;2.20;;
63492;SDS011;49638;47.526;10.028;2023-02-23T07:01:50;5.25;;;2.08;;
63492;SDS011;49638;47.526;10.028;2023-02-23T07:04:50;3.17;;;1.60;;
63492;SDS011;49638;47.526;10.028;2023-02-23T07:07:50;6.68;;;2.30;;
63492;SDS011;49638;47.526;10.028;2023-02-23T07:10:51;4.70;;;2.00;;
63492;SDS011;49638;47.526;10.028;2023-02-23T07:13:51;4.50;;;1.95;;
63492;SDS011;49638;47.526;10.028;2023-02-23T07:16:51;6.00;;;2.75;;
63492;SDS011;49638;47.526;10.028;2023-02-23T07:19:52;8.43;;;3.38;;
63492;SDS011;49638;47.526;10.028;2023-02-23T07:22:52;9.20;;;4.95;;
63492;SDS011;49638;47.526;10.028;2023-02-23T07:25:53;13.55;;;5.93;;
63492;SDS011;49638;47.526;10.028;2023-02-23T07:28:55;14.30;;;7.65;;
63492;SDS011;49638;47.526;10.028;2023-02-23T07:31:55;13.48;;;7.15;;
63492;SDS011;49638;47.526;10.028;2023-02-23T07:34:55;14.18;;;6.78;;
63492;SDS011;49638;47.526;10.028;2023-02-23T07:37:56;12.15;;;6.25;;
63492;SDS011;49638;47.526;10.028;2023-02-23T07:40:56;11.52;;;5.47;;
63492;SDS011;49638;47.526;10.028;2023-02-23T07:43:57;9.02;;;5.13;;
63492;SDS011;49638;47.526;10.028;2023-02-23T07:46:58;8.02;;;4.00;;
63492;SDS011;49638;47.526;10.028;2023-02-23T07:49:58;6.88;;;2.85;;
63492;SDS011;49638;47.526;10.028;2023-02-23T07:53:01;6.93;;;2.70;;
63492;SDS011;49638;47.526;10.028;2023-02-23T07:56:02;4.22;;;2.50;;
63492;SDS011;49638;47.526;10.028;2023-02-23T07:59:03;16.63;;;6.93;;
63492;SDS011;49638;47.526;10.028;2023-02-23T08:02:03;14.55;;;4.20;;
63492;SDS011;49638;47.526;10.028;2023-02-23T08:05:03;5.57;;;1.90;;
63492;SDS011;49638;47.526;10.028;2023-02-23T08:08:04;3.75;;;1.85;;
63492;SDS011;49638;47.526;10.028;2023-02-23T08:11:05;3.22;;;1.77;;
63492;SDS011;49638;47.526;10.028;2023-02-23T08:14:05;4.60;;;2.10;;
63492;SDS011;49638;47.526;10.028;2023-02-23T08:17:05;5.55;;;2.30;;
63492;SDS011;49638;47.526;10.028;2023-02-23T08:20:06;4.88;;;2.22;;
63492;SDS011;49638;47.526;10.028;2023-02-23T08:23:07;4.43;;;1.67;;
63492;SDS011;49638;47.526;10.028;2023-02-23T08:26:07;6.97;;;3.10;;
63492;SDS011;49638;47.526;10.028;2023-02-23T08:29:07;2.95;;;1.58;;
63492;SDS011;49638;47.526;10.028;2023-02-23T08:32:08;5.25;;;1.67;;
63492;SDS011;49638;47.526;10.028;2023-02-23T08:35:08;3.78;;;1.30;;
63492;SDS011;49638;47.526;10.028;2023-02-23T08:38:09;1.80;;;1.20;;
63492;SDS011;49638;47.526;10.028;2023-02-23T08:41:09;2.30;;;1.13;;
63492;SDS011;49638;47.526;10.028;2023-02-23T08:44:10;2.92;;;1.42;;
63492;SDS011;49638;47.526;10.028;2023-02-23T08:47:10;4.00;;;1.98;;
63492;SDS011;49638;47.526;10.028;2023-02-23T08:50:11;4.25;;;2.08;;
63492;SDS011;49638;47.526;10.028;2023-02-23T08:53:12;10.55;;;3.50;;
63492;SDS011;49638;47.526;10.028;2023-02-23T08:56:12;6.13;;;2.72;;
63492;SDS011;49638;47.526;10.028;2023-02-23T08:59:14;5.60;;;2.55;;
63492;SDS011;49638;47.526;10.028;2023-02-23T09:02:15;6.22;;;2.90;;
63492;SDS011;49638;47.526;10.028;2023-02-23T09:05:15;6.78;;;2.97;;
63492;SDS011;49638;47.526;10.028;2023-02-23T09:08:16;6.88;;;3.05;;
63492;SDS011;49638;47.526;10.028;2023-02-23T09:11:17;6.25;;;3.13;;
63492;SDS011;49638;47.526;10.028;2023-02-23T09:14:17;6.78;;;2.70;;
63492;SDS011;49638;47.526;10.028;2023-02-23T09:17:17;4.82;;;2.70;;
63492;SDS011;49638;47.526;10.028;2023-02-23T09:20:17;7.00;;;4.07;;
63492;SDS011;49638;47.526;10.028;2023-02-23T09:23:18;5.97;;;4.07;;
63492;SDS011;49638;47.526;10.028;2023-02-23T09:26:18;8.07;;;2.30;;
63492;SDS011;49638;47.526;10.028;2023-02-23T09:29:19;3.15;;;1.85;;
63492;SDS011;49638;47.526;10.028;2023-02-23T09:32:19;2.65;;;1.38;;
63492;SDS011;49638;47.526;10.028;2023-02-23T09:35:20;3.38;;;1.58;;
63492;SDS011;49638;47.526;10.028;2023-02-23T09:38:22;3.75;;;1.73;;
63492;SDS011;49638;47.526;10.028;2023-02-23T09:51:11;5.70;;;2.95;;
63492;SDS011;49638;47.526;10.028;2023-02-23T09:54:17;4.75;;;2.22;;
63492;SDS011;49638;47.526;10.028;2023-02-23T09:57:20;5.45;;;2.83;;
63492;SDS011;49638;47.526;10.028;2023-02-23T10:00:25;4.57;;;2.80;;
63492;SDS011;49638;47.526;10.028;2023-02-23T10:03:29;6.70;;;3.42;;
63492;SDS011;49638;47.526;10.028;2023-02-23T10:06:33;4.63;;;2.30;;
63492;SDS011;49638;47.526;10.028;2023-02-23T10:19:49;2.90;;;2.25;;
63492;SDS011;49638;47.526;10.028;2023-02-23T10:22:56;5.82;;;2.42;;
63492;SDS011;49638;47.526;10.028;2023-02-23T10:26:03;4.45;;;2.80;;
63492;SDS011;49638;47.526;10.028;2023-02-23T10:29:14;6.32;;;3.85;;
63492;SDS011;49638;47.526;10.028;2023-02-23T10:35:39;4.45;;;2.60;;
63492;SDS011;49638;47.526;10.028;2023-02-23T10:38:39;6.88;;;2.35;;
63492;SDS011;49638;47.526;10.028;2023-02-23T10:41:40;2.25;;;1.30;;
63492;SDS011;49638;47.526;10.028;2023-02-23T10:44:41;3.95;;;1.20;;
63492;SDS011;49638;47.526;10.028;2023-02-23T10:47:43;2.80;;;1.20;;
63492;SDS011;49638;47.526;10.028;2023-02-23T10:50:46;4.15;;;1.20;;
63492;SDS011;49638;47.526;10.028;2023-02-23T10:53:48;5.32;;;3.00;;
63492;SDS011;49638;47.526;10.028;2023-02-23T10:56:48;5.85;;;2.50;;
63492;SDS011;49638;47.526;10.028;2023-02-23T11:03:17;5.60;;;2.28;;
63492;SDS011;49638;47.526;10.028;2023-02-23T11:06:26;5.38;;;2.50;;
63492;SDS011;49638;47.526;10.028;2023-02-23T11:09:28;5.55;;;2.10;;
63492;SDS011;49638;47.526;10.028;2023-02-23T11:15:40;3.88;;;1.80;;
63492;SDS011;49638;47.526;10.028;2023-02-23T11:18:53;5.03;;;1.75;;
63492;SDS011;49638;47.526;10.028;2023-02-23T11:21:55;7.88;;;1.92;;
63492;SDS011;49638;47.526;10.028;2023-02-23T11:24:55;5.18;;;1.90;;
63492;SDS011;49638;47.526;10.028;2023-02-23T11:27:56;4.53;;;1.75;;
63492;SDS011;49638;47.526;10.028;2023-02-23T11:31:07;4.03;;;1.98;;
63492;SDS011;49638;47.526;10.028;2023-02-23T11:34:19;13.10;;;2.30;;
63492;SDS011;49638;47.526;10.028;2023-02-23T11:37:23;8.10;;;2.35;;
63492;SDS011;49638;47.526;10.028;2023-02-23T11:40:27;6.43;;;2.25;;
63492;SDS011;49638;47.526;10.028;2023-02-23T11:43:33;7.40;;;2.40;;
63492;SDS011;49638;47.526;10.028;2023-02-23T11:46:35;15.40;;;2.50;;
63492;SDS011;49638;47.526;10.028;2023-02-23T11:49:37;7.40;;;2.10;;
63492;SDS011;49638;47.526;10.028;2023-02-23T11:52:38;7.18;;;2.38;;
63492;SDS011;49638;47.526;10.028;2023-02-23T11:55:48;7.20;;;2.42;;
63492;SDS011;49638;47.526;10.028;2023-02-23T11:58:58;9.18;;;2.08;;
63492;SDS011;49638;47.526;10.028;2023-02-23T12:05:22;6.68;;;2.05;;
63492;SDS011;49638;47.526;10.028;2023-02-23T12:08:35;8.45;;;2.20;;
63492;SDS011;49638;47.526;10.028;2023-02-23T12:11:40;8.45;;;2.03;;
63492;SDS011;49638;47.526;10.028;2023-02-23T12:14:47;5.63;;;2.30;;
63492;SDS011;49638;47.526;10.028;2023-02-23T12:17:54;4.43;;;2.35;;
63492;SDS011;49638;47.526;10.028;2023-02-23T12:21:03;8.40;;;2.70;;
63492;SDS011;49638;47.526;10.028;2023-02-23T12:27:38;7.70;;;2.50;;
63492;SDS011;49638;47.526;10.028;2023-02-23T12:30:45;5.78;;;2.15;;
63492;SDS011;49638;47.526;10.028;2023-02-23T12:33:58;8.32;;;3.05;;
63492;SDS011;49638;47.526;10.028;2023-02-23T12:37:05;7.45;;;2.65;;
63492;SDS011;49638;47.526;10.028;2023-02-23T12:40:36;6.40;;;2.55;;
63492;SDS011;49638;47.526;10.028;2023-02-23T12:43:46;4.15;;;2.28;;
63492;SDS011;49638;47.526;10.028;2023-02-23T12:46:51;6.78;;;2.35;;
63492;SDS011;49638;47.526;10.028;2023-02-23T12:49:55;6.60;;;2.60;;
63492;SDS011;49638;47.526;10.028;2023-02-23T12:56:38;7.20;;;2.35;;
63492;SDS011;49638;47.526;10.028;2023-02-23T13:09:40;30.05;;;9.48;;
63492;SDS011;49638;47.526;10.028;2023-02-23T13:19:34;5.70;;;2.72;;
63492;SDS011;49638;47.526;10.028;2023-02-23T13:22:44;8.35;;;3.17;;
63492;SDS011;49638;47.526;10.028;2023-02-23T13:32:10;9.82;;;2.85;;
63492;SDS011;49638;47.526;10.028;2023-02-23T13:35:15;6.65;;;2.85;;
63492;SDS011;49638;47.526;10.028;2023-02-23T13:45:23;11.00;;;3.03;;
63492;SDS011;49638;47.526;10.028;2023-02-23T13:48:59;5.10;;;2.42;;
63492;SDS011;49638;47.526;10.028;2023-02-23T13:58:26;9.18;;;3.17;;
63492;SDS011;49638;47.526;10.028;2023-02-23T14:01:35;6.35;;;2.53;;
63492;SDS011;49638;47.526;10.028;2023-02-23T14:04:38;8.38;;;2.47;;
63492;SDS011;49638;47.526;10.028;2023-02-23T14:07:41;9.38;;;2.65;;
63492;SDS011;49638;47.526;10.028;2023-02-23T14:10:44;8.40;;;2.27;;
63492;SDS011;49638;47.526;10.028;2023-02-23T14:13:56;7.85;;;2.83;;
63492;SDS011;49638;47.526;10.028;2023-02-23T14:20:18;6.40;;;2.60;;
63492;SDS011;49638;47.526;10.028;2023-02-23T14:23:29;6.90;;;2.13;;
63492;SDS011;49638;47.526;10.028;2023-02-23T14:26:37;8.05;;;2.50;;
63492;SDS011;49638;47.526;10.028;2023-02-23T14:29:40;7.05;;;2.10;;
63492;SDS011;49638;47.526;10.028;2023-02-23T14:32:43;8.88;;;2.40;;
63492;SDS011;49638;47.526;10.028;2023-02-23T14:35:46;7.75;;;2.67;;
63492;SDS011;49638;47.526;10.028;2023-02-23T14:41:54;7.85;;;2.50;;
63492;SDS011;49638;47.526;10.028;2023-02-23T14:45:02;4.57;;;2.42;;
63492;SDS011;49638;47.526;10.028;2023-02-23T14:48:26;8.98;;;2.72;;
63492;SDS011;49638;47.526;10.028;2023-02-23T14:51:35;5.68;;;2.65;;
63492;SDS011;49638;47.526;10.028;2023-02-23T14:54:40;8.40;;;2.90;;
63492;SDS011;49638;47.526;10.028;2023-02-23T14:57:41;4.70;;;2.22;;
63492;SDS011;49638;47.526;10.028;2023-02-23T15:00:42;7.78;;;2.45;;
63492;SDS011;49638;47.526;10.028;2023-02-23T15:04:03;8.05;;;2.65;;
63492;SDS011;49638;47.526;10.028;2023-02-23T15:07:04;10.82;;;3.45;;
63492;SDS011;49638;47.526;10.028;2023-02-23T15:10:08;9.13;;;2.80;;
63492;SDS011;49638;47.526;10.028;2023-02-23T15:16:35;8.27;;;2.80;;
63492;SDS011;49638;47.526;10.028;2023-02-23T15:19:36;11.43;;;3.03;;
63492;SDS011;49638;47.526;10.028;2023-02-23T15:22:38;8.90;;;2.97;;
63492;SDS011;49638;47.526;10.028;2023-02-23T15:25:40;9.38;;;2.80;;
63492;SDS011;49638;47.526;10.028;2023-02-23T15:28:41;8.35;;;2.80;;
63492;SDS011;49638;47.526;10.028;2023-02-23T15:31:45;8.38;;;2.92;;
63492;SDS011;49638;47.526;10.028;2023-02-23T15:34:54;7.45;;;2.83;;
63492;SDS011;49638;47.526;10.028;2023-02-23T15:38:02;10.35;;;2.70;;
63492;SDS011;49638;47.526;10.028;2023-02-23T15:41:08;7.22;;;2.55;;
63492;SDS011;49638;47.526;10.028;2023-02-23T15:44:25;8.35;;;2.78;;
63492;SDS011;49638;47.526;10.028;2023-02-23T15:47:31;7.18;;;2.65;;
63492;SDS011;49638;47.526;10.028;2023-02-23T15:50:35;9.02;;;3.90;;
63492;SDS011;49638;47.526;10.028;2023-02-23T15:53:41;6.93;;;4.70;;
63492;SDS011;49638;47.526;10.028;2023-02-23T15:56:42;8.80;;;4.68;;
63492;SDS011;49638;47.526;10.028;2023-02-23T15:59:48;11.75;;;3.15;;
63492;SDS011;49638;47.526;10.028;2023-02-23T16:02:48;7.78;;;3.08;;
63492;SDS011;49638;47.526;10.028;2023-02-23T16:05:53;5.78;;;2.60;;
63492;SDS011;49638;47.526;10.028;2023-02-23T16:09:23;4.90;;;2.67;;
63492;SDS011;49638;47.526;10.028;2023-02-23T16:12:29;8.85;;;2.63;;
63492;SDS011;49638;47.526;10.028;2023-02-23T16:15:32;6.65;;;2.60;;
63492;SDS011;49638;47.526;10.028;2023-02-23T16:18:39;7.28;;;2.70;;
63492;SDS011;49638;47.526;10.028;2023-02-23T16:21:41;8.32;;;2.97;;
63492;SDS011;49638;47.526;10.028;2023-02-23T16:24:51;6.18;;;2.65;;
63492;SDS011;49638;47.526;10.028;2023-02-23T16:28:01;7.43;;;2.95;;
63492;SDS011;49638;47.526;10.028;2023-02-23T16:31:04;7.20;;;2.58;;
63492;SDS011;49638;47.526;10.028;2023-02-23T16:37:54;11.73;;;3.63;;
63492;SDS011;49638;47.526;10.028;2023-02-23T16:40:58;10.70;;;3.10;;
63492;SDS011;49638;47.526;10.028;2023-02-23T16:43:59;5.43;;;2.70;;
63492;SDS011;49638;47.526;10.028;2023-02-23T16:50:04;10.43;;;3.35;;
63492;SDS011;49638;47.526;10.028;2023-02-23T16:53:12;9.27;;;3.90;;
63492;SDS011;49638;47.526;10.028;2023-02-23T16:56:17;11.32;;;3.42;;
63492;SDS011;49638;47.526;10.028;2023-02-23T16:59:19;6.28;;;3.47;;
63492;SDS011;49638;47.526;10.028;2023-02-23T17:02:20;22.60;;;10.73;;
63492;SDS011;49638;47.526;10.028;2023-02-23T17:05:23;13.18;;;7.40;;
63492;SDS011;49638;47.526;10.028;2023-02-23T17:08:24;6.85;;;3.15;;
63492;SDS011;49638;47.526;10.028;2023-02-23T17:11:25;8.55;;;4.28;;
63492;SDS011;49638;47.526;10.028;2023-02-23T17:14:25;7.38;;;3.08;;
63492;SDS011;49638;47.526;10.028;2023-02-23T17:17:27;7.68;;;3.78;;
63492;SDS011;49638;47.526;10.028;2023-02-23T17:20:27;11.65;;;3.10;;
63492;SDS011;49638;47.526;10.028;2023-02-23T17:23:29;6.68;;;3.20;;
63492;SDS011;49638;47.526;10.028;2023-02-23T17:26:49;17.88;;;3.88;;
63492;SDS011;49638;47.526;10.028;2023-02-23T17:29:50;8.75;;;3.15;;
63492;SDS011;49638;47.526;10.028;2023-02-23T17:32:52;11.98;;;2.88;;
63492;SDS011;49638;47.526;10.028;2023-02-23T17:35:54;9.07;;;2.50;;
63492;SDS011;49638;47.526;10.028;2023-02-23T17:38:54;9.02;;;3.53;;
63492;SDS011;49638;47.526;10.028;2023-02-23T17:41:57;9.98;;;3.50;;
63492;SDS011;49638;47.526;10.028;2023-02-23T17:44:58;6.63;;;3.00;;
63492;SDS011;49638;47.526;10.028;2023-02-23T17:47:58;13.95;;;4.72;;
63492;SDS011;49638;47.526;10.028;2023-02-23T17:50:59;17.73;;;5.70;;
63492;SDS011;49638;47.526;10.028;2023-02-23T17:54:01;16.65;;;5.00;;
63492;SDS011;49638;47.526;10.028;2023-02-23T17:57:02;16.88;;;7.30;;
63492;SDS011;49638;47.526;10.028;2023-02-23T18:00:02;21.35;;;5.72;;
63492;SDS011;49638;47.526;10.028;2023-02-23T18:03:06;16.80;;;5.90;;
63492;SDS011;49638;47.526;10.028;2023-02-23T18:06:10;12.23;;;4.32;;
63492;SDS011;49638;47.526;10.028;2023-02-23T18:09:11;14.38;;;4.20;;
63492;SDS011;49638;47.526;10.028;2023-02-23T18:12:13;9.43;;;3.63;;
63492;SDS011;49638;47.526;10.028;2023-02-23T18:15:13;7.38;;;3.63;;
63492;SDS011;49638;47.526;10.028;2023-02-23T18:18:14;33.97;;;8.63;;
63492;SDS011;49638;47.526;10.028;2023-02-23T18:21:15;19.15;;;4.93;;
63492;SDS011;49638;47.526;10.028;2023-02-23T18:24:17;25.53;;;6.17;;
63492;SDS011;49638;47.526;10.028;2023-02-23T18:27:17;25.77;;;7.85;;
63492;SDS011;49638;47.526;10.028;2023-02-23T18:30:18;13.77;;;3.58;;
63492;SDS011;49638;47.526;10.028;2023-02-23T18:33:19;6.18;;;2.53;;
63492;SDS011;49638;47.526;10.028;2023-02-23T18:39:27;16.88;;;7.63;;
63492;SDS011;49638;47.526;10.028;2023-02-23T18:42:29;9.52;;;4.78;;
63492;SDS011;49638;47.526;10.028;2023-02-23T18:45:30;6.22;;;3.08;;
63492;SDS011;49638;47.526;10.028;2023-02-23T18:48:31;6.82;;;2.90;;
63492;SDS011;49638;47.526;10.028;2023-02-23T18:51:31;8.98;;;2.92;;
63492;SDS011;49638;47.526;10.028;2023-02-23T18:54:32;7.70;;;2.83;;
63492;SDS011;49638;47.526;10.028;2023-02-23T18:57:32;6.55;;;2.70;;
63492;SDS011;49638;47.526;10.028;2023-02-23T19:00:32;6.22;;;3.00;;
63492;SDS011;49638;47.526;10.028;2023-02-23T19:03:38;4.20;;;2.63;;
63492;SDS011;49638;47.526;10.028;2023-02-23T19:06:41;11.50;;;2.70;;
63492;SDS011;49638;47.526;10.028;2023-02-23T19:09:43;6.28;;;2.85;;
63492;SDS011;49638;47.526;10.028;2023-02-23T19:12:46;7.97;;;3.38;;
63492;SDS011;49638;47.526;10.028;2023-02-23T19:15:46;11.05;;;3.00;;
63492;SDS011;49638;47.526;10.028;2023-02-23T19:18:47;5.68;;;2.92;;
63492;SDS011;49638;47.526;10.028;2023-02-23T19:21:47;20.25;;;12.30;;
63492;SDS011;49638;47.526;10.028;2023-02-23T19:24:48;18.08;;;8.88;;
63492;SDS011;49638;47.526;10.028;2023-02-23T19:27:48;8.38;;;3.80;;
63492;SDS011;49638;47.526;10.028;2023-02-23T19:30:49;8.15;;;2.95;;
63492;SDS011;49638;47.526;10.028;2023-02-23T19:33:49;7.55;;;2.65;;
63492;SDS011;49638;47.526;10.028;2023-02-23T19:36:49;4.57;;;2.45;;
63492;SDS011;49638;47.526;10.028;2023-02-23T19:39:49;9.70;;;2.88;;
63492;SDS011;49638;47.526;10.028;2023-02-23T19:42:50;6.15;;;2.40;;
63492;SDS011;49638;47.526;10.028;2023-02-23T19:45:51;8.55;;;3.33;;
63492;SDS011;49638;47.526;10.028;2023-02-23T19:48:52;8.25;;;4.80;;
63492;SDS011;49638;47.526;10.028;2023-02-23T19:51:52;10.88;;;5.72;;
63492;SDS011;49638;47.526;10.028;2023-02-23T19:54:53;18.75;;;8.85;;
63492;SDS011;49638;47.526;10.028;2023-02-23T19:57:53;8.65;;;3.60;;
63492;SDS011;49638;47.526;10.028;2023-02-23T20:00:53;9.30;;;3.17;;
63492;SDS011;49638;47.526;10.028;2023-02-23T20:03:57;10.00;;;3.50;;
63492;SDS011;49638;47.526;10.028;2023-02-23T20:07:01;15.15;;;4.45;;
63492;SDS011;49638;47.526;10.028;2023-02-23T20:10:01;12.38;;;5.25;;
63492;SDS011;49638;47.526;10.028;2023-02-23T20:13:04;14.43;;;4.82;;
63492;SDS011;49638;47.526;10.028;2023-02-23T20:16:06;13.88;;;5.28;;
63492;SDS011;49638;47.526;10.028;2023-02-23T20:19:08;8.60;;;4.57;;